sensor_id;sensor_type;location;lat;lon;timestamp;P1;durP1;ratioP1;P2;durP2;ratioP2
21731;SDS011;11028;51.156;17.130;2022-09-09T00:04:40;18.65;;;11.55;;
21731;SDS011;11028;51.156;17.130;2022-09-09T00:12:00;17.85;;;11.23;;
21731;SDS011;11028;51.156;17.130;2022-09-09T00:19:20;17.17;;;11.05;;
21731;SDS011;11028;51.156;17.130;2022-09-09T00:26:42;14.38;;;10.55;;
21731;SDS011;11028;51.156;17.130;2022-09-09T00:34:03;13.20;;;9.75;;
21731;SDS011;11028;51.156;17.130;2022-09-09T00:41:27;13.02;;;10.43;;
21731;SDS011;11028;51.156;17.130;2022-09-09T00:48:51;12.70;;;9.63;;
21731;SDS011;11028;51.156;17.130;2022-09-09T00:56:12;13.82;;;9.73;;
21731;SDS011;11028;51.156;17.130;2022-09-09T01:03:32;15.68;;;8.73;;
21731;SDS011;11028;51.156;17.130;2022-09-09T01:10:53;13.50;;;8.73;;
21731;SDS011;11028;51.156;17.130;2022-09-09T01:18:17;11.63;;;8.10;;
21731;SDS011;11028;51.156;17.130;2022-09-09T01:25:59;11.63;;;7.45;;
21731;SDS011;11028;51.156;17.130;2022-09-09T01:33:31;9.38;;;8.05;;
21731;SDS011;11028;51.156;17.130;2022-09-09T01:40:49;11.38;;;8.80;;
21731;SDS011;11028;51.156;17.130;2022-09-09T01:48:09;11.13;;;8.18;;
21731;SDS011;11028;51.156;17.130;2022-09-09T01:55:42;12.02;;;8.65;;
21731;SDS011;11028;51.156;17.130;2022-09-09T02:03:08;12.65;;;8.93;;
21731;SDS011;11028;51.156;17.130;2022-09-09T02:10:44;11.30;;;7.95;;
21731;SDS011;11028;51.156;17.130;2022-09-09T02:18:14;10.43;;;8.02;;
21731;SDS011;11028;51.156;17.130;2022-09-09T02:25:35;11.02;;;7.88;;
21731;SDS011;11028;51.156;17.130;2022-09-09T02:33:04;10.88;;;7.97;;
21731;SDS011;11028;51.156;17.130;2022-09-09T02:40:36;8.85;;;7.95;;
21731;SDS011;11028;51.156;17.130;2022-09-09T02:47:55;12.25;;;8.98;;
21731;SDS011;11028;51.156;17.130;2022-09-09T02:55:18;11.63;;;9.02;;
21731;SDS011;11028;51.156;17.130;2022-09-09T03:09:58;9.13;;;8.20;;
21731;SDS011;11028;51.156;17.130;2022-09-09T03:17:16;14.90;;;9.63;;
21731;SDS011;11028;51.156;17.130;2022-09-09T03:31:58;13.15;;;10.25;;
21731;SDS011;11028;51.156;17.130;2022-09-09T03:39:16;17.45;;;11.77;;
21731;SDS011;11028;51.156;17.130;2022-09-09T03:46:35;11.80;;;10.18;;
21731;SDS011;11028;51.156;17.130;2022-09-09T03:53:56;12.93;;;9.40;;
21731;SDS011;11028;51.156;17.130;2022-09-09T04:01:15;11.25;;;8.60;;
21731;SDS011;11028;51.156;17.130;2022-09-09T04:08:36;13.27;;;9.52;;
21731;SDS011;11028;51.156;17.130;2022-09-09T04:15:54;11.23;;;10.05;;
21731;SDS011;11028;51.156;17.130;2022-09-09T04:23:13;11.65;;;9.90;;
21731;SDS011;11028;51.156;17.130;2022-09-09T04:30:32;13.18;;;10.98;;
21731;SDS011;11028;51.156;17.130;2022-09-09T04:37:50;13.73;;;10.77;;
21731;SDS011;11028;51.156;17.130;2022-09-09T04:45:08;13.13;;;10.65;;
21731;SDS011;11028;51.156;17.130;2022-09-09T04:52:28;13.77;;;10.68;;
21731;SDS011;11028;51.156;17.130;2022-09-09T04:59:47;15.13;;;10.95;;
21731;SDS011;11028;51.156;17.130;2022-09-09T05:07:04;14.05;;;10.70;;
21731;SDS011;11028;51.156;17.130;2022-09-09T05:14:23;15.50;;;12.13;;
21731;SDS011;11028;51.156;17.130;2022-09-09T05:21:40;15.90;;;13.25;;
21731;SDS011;11028;51.156;17.130;2022-09-09T05:28:57;18.88;;;13.60;;
21731;SDS011;11028;51.156;17.130;2022-09-09T05:36:18;17.88;;;12.70;;
21731;SDS011;11028;51.156;17.130;2022-09-09T05:43:41;17.63;;;12.60;;
21731;SDS011;11028;51.156;17.130;2022-09-09T05:50:59;10.32;;;9.07;;
21731;SDS011;11028;51.156;17.130;2022-09-09T05:58:19;8.50;;;7.65;;
21731;SDS011;11028;51.156;17.130;2022-09-09T06:05:36;11.98;;;7.88;;
21731;SDS011;11028;51.156;17.130;2022-09-09T06:12:53;8.13;;;6.88;;
21731;SDS011;11028;51.156;17.130;2022-09-09T06:20:12;9.40;;;7.28;;
21731;SDS011;11028;51.156;17.130;2022-09-09T06:27:30;14.90;;;8.48;;
21731;SDS011;11028;51.156;17.130;2022-09-09T06:34:46;8.90;;;7.45;;
21731;SDS011;11028;51.156;17.130;2022-09-09T06:42:06;9.30;;;7.10;;
21731;SDS011;11028;51.156;17.130;2022-09-09T06:49:42;12.20;;;7.50;;
21731;SDS011;11028;51.156;17.130;2022-09-09T06:57:00;12.35;;;9.00;;
21731;SDS011;11028;51.156;17.130;2022-09-09T07:04:20;11.00;;;9.02;;
21731;SDS011;11028;51.156;17.130;2022-09-09T07:11:38;11.63;;;8.70;;
21731;SDS011;11028;51.156;17.130;2022-09-09T07:18:56;12.60;;;8.85;;
21731;SDS011;11028;51.156;17.130;2022-09-09T07:26:16;12.63;;;7.90;;
21731;SDS011;11028;51.156;17.130;2022-09-09T07:33:34;9.48;;;6.45;;
21731;SDS011;11028;51.156;17.130;2022-09-09T07:40:52;6.25;;;5.38;;
21731;SDS011;11028;51.156;17.130;2022-09-09T07:48:10;8.43;;;5.45;;
21731;SDS011;11028;51.156;17.130;2022-09-09T07:55:27;7.93;;;3.88;;
21731;SDS011;11028;51.156;17.130;2022-09-09T08:02:44;8.07;;;4.43;;
21731;SDS011;11028;51.156;17.130;2022-09-09T08:10:03;11.45;;;4.22;;
21731;SDS011;11028;51.156;17.130;2022-09-09T08:17:24;6.70;;;4.55;;
21731;SDS011;11028;51.156;17.130;2022-09-09T08:24:41;4.25;;;3.00;;
21731;SDS011;11028;51.156;17.130;2022-09-09T08:31:59;8.57;;;3.70;;
21731;SDS011;11028;51.156;17.130;2022-09-09T08:39:18;4.47;;;3.08;;
21731;SDS011;11028;51.156;17.130;2022-09-09T08:46:43;4.20;;;3.08;;
21731;SDS011;11028;51.156;17.130;2022-09-09T08:54:06;8.82;;;3.90;;
21731;SDS011;11028;51.156;17.130;2022-09-09T09:01:35;5.22;;;2.13;;
21731;SDS011;11028;51.156;17.130;2022-09-09T09:09:10;4.75;;;2.30;;
21731;SDS011;11028;51.156;17.130;2022-09-09T09:16:31;5.13;;;2.50;;
21731;SDS011;11028;51.156;17.130;2022-09-09T09:23:54;8.63;;;2.35;;
21731;SDS011;11028;51.156;17.130;2022-09-09T09:31:16;5.68;;;2.15;;
21731;SDS011;11028;51.156;17.130;2022-09-09T09:38:36;7.47;;;2.05;;
21731;SDS011;11028;51.156;17.130;2022-09-09T09:45:56;5.32;;;1.98;;
21731;SDS011;11028;51.156;17.130;2022-09-09T09:53:19;7.85;;;2.15;;
21731;SDS011;11028;51.156;17.130;2022-09-09T10:00:46;3.97;;;1.85;;
21731;SDS011;11028;51.156;17.130;2022-09-09T10:08:08;2.63;;;1.80;;
21731;SDS011;11028;51.156;17.130;2022-09-09T10:15:34;6.80;;;1.85;;
21731;SDS011;11028;51.156;17.130;2022-09-09T10:22:57;3.00;;;1.63;;
21731;SDS011;11028;51.156;17.130;2022-09-09T10:30:22;3.40;;;2.00;;
21731;SDS011;11028;51.156;17.130;2022-09-09T10:38:05;4.22;;;1.70;;
21731;SDS011;11028;51.156;17.130;2022-09-09T10:45:31;1.58;;;1.08;;
21731;SDS011;11028;51.156;17.130;2022-09-09T11:00:16;7.90;;;2.00;;
21731;SDS011;11028;51.156;17.130;2022-09-09T11:07:37;4.57;;;1.50;;
21731;SDS011;11028;51.156;17.130;2022-09-09T11:14:57;2.60;;;1.40;;
21731;SDS011;11028;51.156;17.130;2022-09-09T11:22:27;1.63;;;1.25;;
21731;SDS011;11028;51.156;17.130;2022-09-09T11:29:52;2.85;;;1.30;;
21731;SDS011;11028;51.156;17.130;2022-09-09T11:37:39;6.53;;;4.00;;
21731;SDS011;11028;51.156;17.130;2022-09-09T11:45:09;2.70;;;1.45;;
21731;SDS011;11028;51.156;17.130;2022-09-09T11:59:53;6.13;;;3.05;;
21731;SDS011;11028;51.156;17.130;2022-09-09T12:07:22;3.05;;;1.38;;
21731;SDS011;11028;51.156;17.130;2022-09-09T12:14:55;2.47;;;1.42;;
21731;SDS011;11028;51.156;17.130;2022-09-09T12:22:37;4.38;;;1.50;;
21731;SDS011;11028;51.156;17.130;2022-09-09T12:30:09;1.55;;;1.15;;
21731;SDS011;11028;51.156;17.130;2022-09-09T12:37:28;5.88;;;1.70;;
21731;SDS011;11028;51.156;17.130;2022-09-09T12:44:52;2.45;;;1.60;;
21731;SDS011;11028;51.156;17.130;2022-09-09T12:52:13;5.00;;;1.93;;
21731;SDS011;11028;51.156;17.130;2022-09-09T12:59:37;7.53;;;3.30;;
21731;SDS011;11028;51.156;17.130;2022-09-09T13:07:04;4.57;;;1.20;;
21731;SDS011;11028;51.156;17.130;2022-09-09T13:14:27;2.53;;;1.50;;
21731;SDS011;11028;51.156;17.130;2022-09-09T13:21:45;3.92;;;1.30;;
21731;SDS011;11028;51.156;17.130;2022-09-09T13:36:46;3.30;;;1.40;;
21731;SDS011;11028;51.156;17.130;2022-09-09T13:51:28;2.08;;;1.50;;
21731;SDS011;11028;51.156;17.130;2022-09-09T13:58:50;6.38;;;2.50;;
21731;SDS011;11028;51.156;17.130;2022-09-09T14:06:07;2.58;;;1.65;;
21731;SDS011;11028;51.156;17.130;2022-09-09T14:13:26;2.22;;;1.30;;
21731;SDS011;11028;51.156;17.130;2022-09-09T14:20:43;3.58;;;1.17;;
21731;SDS011;11028;51.156;17.130;2022-09-09T14:28:00;2.90;;;1.40;;
21731;SDS011;11028;51.156;17.130;2022-09-09T14:35:18;1.52;;;1.30;;
21731;SDS011;11028;51.156;17.130;2022-09-09T14:42:35;3.60;;;1.33;;
21731;SDS011;11028;51.156;17.130;2022-09-09T14:49:52;3.63;;;1.30;;
21731;SDS011;11028;51.156;17.130;2022-09-09T14:57:10;2.53;;;1.60;;
21731;SDS011;11028;51.156;17.130;2022-09-09T15:04:27;2.08;;;1.35;;
21731;SDS011;11028;51.156;17.130;2022-09-09T15:11:45;1.80;;;1.50;;
21731;SDS011;11028;51.156;17.130;2022-09-09T15:19:06;2.17;;;1.65;;
21731;SDS011;11028;51.156;17.130;2022-09-09T15:26:24;2.85;;;1.60;;
21731;SDS011;11028;51.156;17.130;2022-09-09T15:33:41;1.85;;;1.20;;
21731;SDS011;11028;51.156;17.130;2022-09-09T15:40:59;3.42;;;1.30;;
21731;SDS011;11028;51.156;17.130;2022-09-09T15:48:16;3.63;;;1.67;;
21731;SDS011;11028;51.156;17.130;2022-09-09T15:55:34;5.82;;;2.20;;
21731;SDS011;11028;51.156;17.130;2022-09-09T16:02:52;3.83;;;1.58;;
21731;SDS011;11028;51.156;17.130;2022-09-09T16:10:09;2.35;;;1.85;;
21731;SDS011;11028;51.156;17.130;2022-09-09T16:17:28;7.75;;;2.50;;
21731;SDS011;11028;51.156;17.130;2022-09-09T16:24:47;4.38;;;1.90;;
21731;SDS011;11028;51.156;17.130;2022-09-09T16:32:04;3.97;;;2.17;;
21731;SDS011;11028;51.156;17.130;2022-09-09T16:39:21;3.33;;;2.58;;
21731;SDS011;11028;51.156;17.130;2022-09-09T16:46:40;7.13;;;2.20;;
21731;SDS011;11028;51.156;17.130;2022-09-09T16:53:59;5.15;;;2.25;;
21731;SDS011;11028;51.156;17.130;2022-09-09T17:01:19;3.08;;;2.35;;
21731;SDS011;11028;51.156;17.130;2022-09-09T17:08:37;4.88;;;2.55;;
21731;SDS011;11028;51.156;17.130;2022-09-09T17:15:56;6.07;;;2.47;;
21731;SDS011;11028;51.156;17.130;2022-09-09T17:23:13;7.18;;;3.80;;
21731;SDS011;11028;51.156;17.130;2022-09-09T17:30:34;14.07;;;5.45;;
21731;SDS011;11028;51.156;17.130;2022-09-09T17:37:57;4.75;;;2.17;;
21731;SDS011;11028;51.156;17.130;2022-09-09T17:45:14;4.15;;;3.00;;
21731;SDS011;11028;51.156;17.130;2022-09-09T17:52:33;6.22;;;2.92;;
21731;SDS011;11028;51.156;17.130;2022-09-09T17:59:52;6.63;;;3.00;;
21731;SDS011;11028;51.156;17.130;2022-09-09T18:07:09;10.52;;;3.53;;
21731;SDS011;11028;51.156;17.130;2022-09-09T18:14:30;4.80;;;2.40;;
21731;SDS011;11028;51.156;17.130;2022-09-09T18:21:48;4.78;;;2.72;;
21731;SDS011;11028;51.156;17.130;2022-09-09T18:29:06;3.78;;;2.85;;
21731;SDS011;11028;51.156;17.130;2022-09-09T18:36:25;4.80;;;2.90;;
21731;SDS011;11028;51.156;17.130;2022-09-09T18:43:44;6.63;;;3.13;;
21731;SDS011;11028;51.156;17.130;2022-09-09T18:51:02;6.65;;;2.80;;
21731;SDS011;11028;51.156;17.130;2022-09-09T18:58:20;6.80;;;3.42;;
21731;SDS011;11028;51.156;17.130;2022-09-09T19:05:37;7.97;;;3.60;;
21731;SDS011;11028;51.156;17.130;2022-09-09T19:12:54;13.23;;;4.68;;
21731;SDS011;11028;51.156;17.130;2022-09-09T19:20:13;8.85;;;4.93;;
21731;SDS011;11028;51.156;17.130;2022-09-09T19:27:31;10.98;;;5.13;;
21731;SDS011;11028;51.156;17.130;2022-09-09T19:34:47;9.63;;;4.70;;
21731;SDS011;11028;51.156;17.130;2022-09-09T19:42:07;11.05;;;4.05;;
21731;SDS011;11028;51.156;17.130;2022-09-09T19:49:24;10.73;;;4.18;;
21731;SDS011;11028;51.156;17.130;2022-09-09T19:56:41;6.32;;;3.28;;
21731;SDS011;11028;51.156;17.130;2022-09-09T20:04:01;9.27;;;4.82;;
21731;SDS011;11028;51.156;17.130;2022-09-09T20:11:19;9.82;;;4.10;;
21731;SDS011;11028;51.156;17.130;2022-09-09T20:18:37;17.27;;;7.05;;
21731;SDS011;11028;51.156;17.130;2022-09-09T20:25:59;10.13;;;4.63;;
21731;SDS011;11028;51.156;17.130;2022-09-09T20:33:17;8.75;;;3.45;;
21731;SDS011;11028;51.156;17.130;2022-09-09T20:40:35;7.45;;;3.38;;
21731;SDS011;11028;51.156;17.130;2022-09-09T20:47:54;8.40;;;4.22;;
21731;SDS011;11028;51.156;17.130;2022-09-09T20:55:11;13.40;;;5.30;;
21731;SDS011;11028;51.156;17.130;2022-09-09T21:02:28;9.50;;;4.10;;
21731;SDS011;11028;51.156;17.130;2022-09-09T21:09:46;15.30;;;5.18;;
21731;SDS011;11028;51.156;17.130;2022-09-09T21:17:03;10.05;;;4.25;;
21731;SDS011;11028;51.156;17.130;2022-09-09T21:24:20;7.40;;;4.63;;
21731;SDS011;11028;51.156;17.130;2022-09-09T21:31:38;8.27;;;4.45;;
21731;SDS011;11028;51.156;17.130;2022-09-09T21:38:57;7.47;;;4.55;;
21731;SDS011;11028;51.156;17.130;2022-09-09T21:46:14;14.63;;;4.80;;
21731;SDS011;11028;51.156;17.130;2022-09-09T21:53:33;5.32;;;3.00;;
21731;SDS011;11028;51.156;17.130;2022-09-09T22:00:49;4.28;;;2.10;;
21731;SDS011;11028;51.156;17.130;2022-09-09T22:08:06;5.15;;;2.33;;
21731;SDS011;11028;51.156;17.130;2022-09-09T22:15:25;8.32;;;2.97;;
21731;SDS011;11028;51.156;17.130;2022-09-09T22:22:44;5.50;;;3.30;;
21731;SDS011;11028;51.156;17.130;2022-09-09T22:30:01;5.30;;;3.60;;
21731;SDS011;11028;51.156;17.130;2022-09-09T22:37:19;4.10;;;3.00;;
21731;SDS011;11028;51.156;17.130;2022-09-09T22:44:37;8.07;;;3.47;;
21731;SDS011;11028;51.156;17.130;2022-09-09T22:51:53;6.85;;;3.15;;
21731;SDS011;11028;51.156;17.130;2022-09-09T22:59:12;6.95;;;3.33;;
21731;SDS011;11028;51.156;17.130;2022-09-09T23:06:30;6.20;;;2.72;;
21731;SDS011;11028;51.156;17.130;2022-09-09T23:13:48;8.35;;;2.97;;
21731;SDS011;11028;51.156;17.130;2022-09-09T23:21:09;4.55;;;2.80;;
21731;SDS011;11028;51.156;17.130;2022-09-09T23:28:27;4.47;;;2.67;;
21731;SDS011;11028;51.156;17.130;2022-09-09T23:35:45;4.20;;;2.70;;
21731;SDS011;11028;51.156;17.130;2022-09-09T23:43:04;2.22;;;2.03;;
21731;SDS011;11028;51.156;17.130;2022-09-09T23:50:21;3.92;;;2.20;;
21731;SDS011;11028;51.156;17.130;2022-09-09T23:57:39;2.45;;;2.25;;
